Time;durP1;ratioP1;P1;durP2;ratioP2;P2;SDS_P1;SDS_P2;PMS_P1;PMS_P2;Temp;Humidity;BMP_temperature;BMP_pressure;BME280_temperature;BME280_humidity;BME280_pressure;Samples;Min_cycle;Max_cycle;Signal;HPM_P1;HPM_P2
2023/07/08 00:01:14;;;;;;;4.50;2.50;;;;;;;25.31;73.69;99980.85;108197;1283;21983;-60
2023/07/08 00:03:40;;;;;;;3.40;2.30;;;;;;;25.37;72.54;99983.23;108309;1278;21952;-62
2023/07/08 00:06:16;;;;;;;4.30;2.70;;;;;;;25.52;72.21;99982.02;108242;1284;21997;-61
2023/07/08 00:08:42;;;;;;;7.30;2.60;;;;;;;25.58;72.28;99983.02;108309;1274;21991;-62
2023/07/08 00:11:11;;;;;;;3.80;2.50;;;;;;;25.58;72.53;99987.14;108195;1283;21987;-61
2023/07/08 00:13:37;;;;;;;5.50;2.70;;;;;;;25.58;72.45;99988.77;108242;1275;21986;-63
2023/07/08 00:16:02;;;;;;;6.00;2.40;;;;;;;25.59;71.98;99989.21;108202;1284;21990;-59
2023/07/08 00:18:28;;;;;;;4.70;2.20;;;;;;;25.60;72.03;99988.63;108218;1284;21986;-63
2023/07/08 00:20:54;;;;;;;4.30;2.30;;;;;;;25.59;71.76;99993.30;108245;1284;21981;-62
2023/07/08 00:23:21;;;;;;;4.40;2.30;;;;;;;25.61;71.18;99997.25;108206;1284;21982;-59
2023/07/08 00:25:47;;;;;;;3.70;2.40;;;;;;;25.65;70.97;99998.40;108230;1278;21993;-62
2023/07/08 00:28:19;;;;;;;5.20;2.80;;;;;;;25.67;70.62;99997.86;108209;1284;21985;-59
2023/07/08 00:30:46;;;;;;;3.90;2.60;;;;;;;25.66;70.98;99994.92;108259;1284;21981;-63
2023/07/08 00:33:11;;;;;;;6.20;2.10;;;;;;;25.61;71.42;99995.53;108252;1283;21993;-63
2023/07/08 00:35:42;;;;;;;4.00;2.50;;;;;;;25.60;70.71;99998.47;108250;1283;21987;-62
2023/07/08 00:38:26;;;;;;;5.40;2.10;;;;;;;25.61;70.83;100001.98;108259;1283;22060;-64
2023/07/08 00:41:24;;;;;;;4.40;2.30;;;;;;;25.61;70.76;100003.73;108362;1283;21946;-63
2023/07/08 00:43:54;;;;;;;3.30;2.00;;;;;;;25.62;71.39;100002.23;108279;1283;21982;-59
2023/07/08 00:46:31;;;;;;;3.50;2.00;;;;;;;25.48;72.35;100000.14;108369;1277;21977;-63
2023/07/08 00:49:07;;;;;;;5.50;1.90;;;;;;;25.44;72.85;100003.70;108207;1281;22465;-58
2023/07/08 00:51:37;;;;;;;5.30;2.50;;;;;;;25.54;71.13;100007.01;108304;1284;21981;-62
2023/07/08 00:54:04;;;;;;;4.00;2.10;;;;;;;25.58;71.08;100009.58;108273;1274;21988;-59
2023/07/08 00:56:33;;;;;;;3.80;1.90;;;;;;;25.61;70.88;100007.20;108263;1284;21981;-63
2023/07/08 00:59:04;;;;;;;3.10;1.70;;;;;;;25.62;70.20;100008.73;108275;1282;21988;-59
2023/07/08 01:01:31;;;;;;;3.40;1.80;;;;;;;25.60;70.66;100008.30;108269;1282;21993;-59
2023/07/08 01:04:06;;;;;;;4.00;2.00;;;;;;;25.59;70.64;100008.77;108274;1284;21990;-59
2023/07/08 01:06:33;;;;;;;4.50;1.90;;;;;;;25.57;70.63;100010.77;108227;1277;23828;-63
2023/07/08 01:09:04;;;;;;;4.90;1.80;;;;;;;25.56;71.02;100010.99;108317;1280;21980;-62
2023/07/08 01:11:30;;;;;;;3.90;2.00;;;;;;;25.55;71.40;100006.59;108333;1275;22024;-63
2023/07/08 01:13:58;;;;;;;5.80;1.90;;;;;;;25.53;71.29;100006.40;108277;1284;21997;-59
2023/07/08 01:16:23;;;;;;;6.70;2.30;;;;;;;25.50;71.15;100007.39;108210;1284;21985;-60
2023/07/08 01:18:52;;;;;;;4.60;2.10;;;;;;;25.50;71.10;100008.26;108129;1281;22040;-59
2023/07/08 01:21:32;;;;;;;5.00;2.40;;;;;;;25.50;72.06;100006.64;108225;1274;21988;-63
2023/07/08 01:23:59;;;;;;;3.10;1.70;;;;;;;25.48;71.87;100007.88;108329;1284;21980;-62
2023/07/08 01:26:25;;;;;;;7.90;1.70;;;;;;;25.48;71.47;100006.08;108153;1280;22024;-63
2023/07/08 01:28:52;;;;;;;5.10;1.60;;;;;;;25.47;72.04;100005.05;108247;1274;21980;-63
2023/07/08 01:31:18;;;;;;;4.70;2.00;;;;;;;25.45;71.56;100004.14;108248;1277;21981;-59
2023/07/08 01:33:43;;;;;;;4.50;2.00;;;;;;;25.43;72.20;100001.43;108314;1284;21985;-61
2023/07/08 01:36:10;;;;;;;4.60;2.00;;;;;;;25.41;71.87;99999.95;108192;1284;22006;-63
2023/07/08 01:38:36;;;;;;;4.00;1.70;;;;;;;25.39;71.67;99999.73;108218;1278;21997;-61
2023/07/08 01:41:02;;;;;;;3.50;1.80;;;;;;;25.39;71.39;99997.41;108197;1284;21986;-62
2023/07/08 01:43:28;;;;;;;8.20;2.10;;;;;;;25.42;72.15;99994.86;108203;1284;22000;-63
2023/07/08 01:45:53;;;;;;;6.70;1.50;;;;;;;25.42;71.94;99992.55;108244;1274;21986;-62
2023/07/08 01:48:22;;;;;;;5.50;2.00;;;;;;;25.42;71.12;99993.27;108213;1277;21983;-62
2023/07/08 01:51:02;;;;;;;7.90;1.90;;;;;;;25.43;71.45;99987.08;108189;1274;21986;-63
2023/07/08 01:53:29;;;;;;;;;;;;;;;25.43;71.69;99985.39;108280;1284;21970;-59
2023/07/08 01:55:55;;;;;;;6.40;1.90;;;;;;;25.42;71.80;99985.81;108237;1277;22971;-63
2023/07/08 01:58:21;;;;;;;10.00;1.90;;;;;;;25.38;72.50;99990.09;108217;1284;21986;-62
2023/07/08 02:00:48;;;;;;;4.90;1.60;;;;;;;25.36;72.10;99987.46;108205;1284;21987;-62
2023/07/08 02:03:17;;;;;;;5.20;2.30;;;;;;;25.37;71.60;99988.58;108213;1280;21997;-62
2023/07/08 02:05:42;;;;;;;9.60;1.60;;;;;;;25.39;72.16;99986.06;108227;1284;21985;-59
2023/07/08 02:08:09;;;;;;;8.20;2.40;;;;;;;25.37;72.10;99986.27;108332;1277;22003;-63
2023/07/08 02:10:37;;;;;;;3.30;1.30;;;;;;;25.41;72.22;99982.55;108295;1284;21989;-59
2023/07/08 02:13:02;;;;;;;3.10;1.50;;;;;;;25.44;72.29;99980.73;108205;1277;21995;-59
2023/07/08 02:15:28;;;;;;;3.70;1.50;;;;;;;25.46;72.58;99982.50;108236;1284;21996;-59
2023/07/08 02:17:54;;;;;;;7.70;1.80;;;;;;;25.47;73.23;99984.09;108185;1284;21994;-60
2023/07/08 02:20:19;;;;;;;4.80;1.80;;;;;;;25.46;73.10;99976.96;108281;1277;21990;-59
2023/07/08 02:22:45;;;;;;;2.40;1.20;;;;;;;25.47;73.52;99977.08;108242;1284;22002;-60
2023/07/08 02:25:11;;;;;;;7.20;1.20;;;;;;;25.46;74.31;99972.83;108242;1284;21983;-64
2023/07/08 02:27:37;;;;;;;1.80;1.40;;;;;;;25.46;73.22;99967.30;108276;1284;21988;-61
2023/07/08 02:30:03;;;;;;;4.90;1.40;;;;;;;25.50;74.10;99967.97;108298;1274;22021;-58
2023/07/08 02:32:29;;;;;;;4.40;1.40;;;;;;;25.53;73.62;99965.21;108272;1284;21989;-59
2023/07/08 02:34:55;;;;;;;3.30;1.60;;;;;;;25.49;74.58;99964.14;108126;1280;21995;-62
2023/07/08 02:37:20;;;;;;;4.00;1.90;;;;;;;25.38;74.76;99967.13;108189;1284;21982;-62
2023/07/08 02:39:47;;;;;;;3.70;1.50;;;;;;;25.34;74.78;99962.83;108219;1284;21988;-58
2023/07/08 02:42:12;;;;;;;3.80;1.50;;;;;;;25.32;74.53;99963.63;108167;1278;22009;-58
2023/07/08 02:44:38;;;;;;;3.30;1.50;;;;;;;25.33;75.37;99962.39;108181;1284;21972;-62
2023/07/08 02:47:04;;;;;;;3.90;1.90;;;;;;;25.32;75.55;99958.86;108289;1282;21985;-59
2023/07/08 02:49:30;;;;;;;3.50;1.80;;;;;;;25.33;75.03;99961.58;108263;1277;22037;-62
2023/07/08 02:51:55;;;;;;;3.10;1.70;;;;;;;25.34;76.96;99958.84;108231;1281;21986;-62
2023/07/08 02:54:21;;;;;;;3.90;1.80;;;;;;;25.32;76.52;99956.09;108228;1284;21981;-58
2023/07/08 02:56:47;;;;;;;6.10;2.50;;;;;;;25.33;77.03;99954.61;108169;1284;21983;-58
2023/07/08 02:59:12;;;;;;;4.20;1.40;;;;;;;25.33;77.14;99954.39;108232;1284;21992;-61
2023/07/08 03:01:41;;;;;;;5.60;1.80;;;;;;;25.36;76.80;99954.38;108234;1280;22011;-60
2023/07/08 03:04:13;;;;;;;5.10;1.70;;;;;;;25.41;76.10;99959.87;108237;1274;21989;-59
2023/07/08 03:06:43;;;;;;;5.50;1.80;;;;;;;25.44;76.91;99960.42;108287;1274;24317;-62
2023/07/08 03:09:09;;;;;;;5.00;1.70;;;;;;;25.46;77.10;99951.79;108276;1278;22041;-61
2023/07/08 03:11:35;;;;;;;2.60;1.60;;;;;;;25.50;76.46;99952.26;108242;1277;21987;-62
2023/07/08 03:14:00;;;;;;;5.20;1.80;;;;;;;25.53;77.22;99952.52;108270;1284;22007;-59
2023/07/08 03:16:26;;;;;;;4.00;1.80;;;;;;;25.54;76.80;99954.17;108224;1277;21991;-60
2023/07/08 03:18:51;;;;;;;3.80;1.80;;;;;;;25.55;77.25;99956.47;108214;1281;21997;-58
2023/07/08 03:21:17;;;;;;;5.10;1.80;;;;;;;25.57;77.11;99959.92;108230;1284;21995;-58
2023/07/08 03:23:43;;;;;;;5.70;2.50;;;;;;;25.57;77.77;99959.17;108244;1284;21989;-61
2023/07/08 03:26:17;;;;;;;5.80;1.70;;;;;;;25.59;77.58;99956.15;108258;1277;21991;-61
2023/07/08 03:28:43;;;;;;;5.60;1.90;;;;;;;25.62;77.19;99956.98;108248;1278;22002;-61
2023/07/08 03:31:09;;;;;;;4.10;1.70;;;;;;;25.65;77.72;99953.83;108232;1278;22042;-60
2023/07/08 03:33:36;;;;;;;4.00;1.70;;;;;;;25.67;78.03;99949.20;108314;1278;22005;-59
2023/07/08 03:36:02;;;;;;;6.90;2.00;;;;;;;25.68;77.98;99951.04;108240;1284;21991;-63
2023/07/08 03:38:28;;;;;;;3.20;1.90;;;;;;;25.70;77.72;99953.64;108272;1284;22448;-59
2023/07/08 03:40:54;;;;;;;4.00;2.00;;;;;;;25.72;77.68;99953.27;108312;1284;21980;-61
2023/07/08 03:43:19;;;;;;;4.30;1.90;;;;;;;25.73;78.80;99955.02;108292;1277;21982;-58
2023/07/08 03:45:45;;;;;;;3.40;1.80;;;;;;;25.71;79.16;99957.50;108255;1281;21991;-61
2023/07/08 03:48:11;;;;;;;6.50;2.30;;;;;;;25.73;78.94;99960.42;108317;1284;21986;-63
2023/07/08 03:50:37;;;;;;;4.10;2.10;;;;;;;25.81;77.57;99959.71;108260;1284;21987;-59
2023/07/08 03:53:03;;;;;;;7.60;2.30;;;;;;;25.95;79.02;99960.17;108306;1277;21984;-59
2023/07/08 03:55:28;;;;;;;6.70;2.50;;;;;;;26.02;77.93;99961.64;108110;1284;208485;-58
2023/07/08 03:57:54;;;;;;;3.60;2.10;;;;;;;26.03;77.75;99962.77;108227;1277;21999;-62
2023/07/08 04:00:21;;;;;;;3.40;2.20;;;;;;;26.03;78.45;99961.48;108207;1275;21985;-63
2023/07/08 04:02:47;;;;;;;6.30;2.40;;;;;;;26.06;77.93;99957.14;108228;1282;22029;-62
2023/07/08 04:05:19;;;;;;;4.60;2.80;;;;;;;26.09;77.38;99959.41;108176;1284;21988;-63
2023/07/08 04:07:46;;;;;;;5.90;2.60;;;;;;;26.13;77.11;99958.90;108250;1278;22043;-59
2023/07/08 04:10:12;;;;;;;8.30;2.50;;;;;;;26.14;77.76;99958.61;108278;1275;21993;-63
2023/07/08 04:12:38;;;;;;;5.20;2.50;;;;;;;26.20;77.46;99959.58;108195;1284;21990;-63
2023/07/08 04:15:06;;;;;;;5.90;2.70;;;;;;;26.24;77.37;99960.71;108260;1284;21984;-64
2023/07/08 04:17:32;;;;;;;6.30;2.60;;;;;;;26.24;77.77;99959.40;108260;1284;21997;-58
2023/07/08 04:20:03;;;;;;;4.60;2.70;;;;;;;26.24;77.45;99955.83;108198;1284;21986;-62
2023/07/08 04:22:29;;;;;;;8.40;2.90;;;;;;;26.25;77.36;99952.83;108222;1277;21991;-63
2023/07/08 04:24:55;;;;;;;7.00;2.70;;;;;;;26.28;77.12;99953.12;108235;1284;21994;-64
2023/07/08 04:27:21;;;;;;;5.00;2.40;;;;;;;26.32;77.10;99951.36;108262;1284;21979;-59
2023/07/08 04:29:46;;;;;;;5.60;2.60;;;;;;;26.32;77.27;99950.30;108237;1278;21996;-58
2023/07/08 04:32:12;;;;;;;5.20;2.60;;;;;;;26.32;77.16;99948.31;108203;1284;21996;-62
2023/07/08 04:34:37;;;;;;;4.70;2.70;;;;;;;26.34;76.46;99951.23;108220;1277;21979;-59
2023/07/08 04:37:06;;;;;;;4.70;2.70;;;;;;;26.35;76.17;99950.20;108237;1274;21986;-63
2023/07/08 04:39:32;;;;;;;8.50;3.00;;;;;;;26.38;76.07;99949.39;108214;1277;21988;-64
2023/07/08 04:41:58;;;;;;;3.10;2.50;;;;;;;26.40;76.04;99953.77;108284;1278;21989;-60
2023/07/08 04:44:24;;;;;;;4.20;2.70;;;;;;;26.42;75.79;99953.74;108215;1274;22019;-59
2023/07/08 04:46:55;;;;;;;4.90;2.60;;;;;;;26.47;75.79;99956.04;108296;1284;21952;-59
2023/07/08 04:49:22;;;;;;;7.70;2.80;;;;;;;26.52;75.51;99958.27;108272;1283;21993;-59
2023/07/08 04:51:48;;;;;;;3.90;2.40;;;;;;;26.58;75.27;99954.16;108231;1284;21993;-59
2023/07/08 04:54:14;;;;;;;4.00;2.70;;;;;;;26.65;75.13;99954.52;108228;1274;21988;-59
2023/07/08 04:56:44;;;;;;;8.00;3.00;;;;;;;26.72;74.74;99956.95;108212;1283;21982;-64
2023/07/08 04:59:11;;;;;;;6.20;2.70;;;;;;;26.70;74.98;99953.73;108232;1280;21985;-58
2023/07/08 05:01:37;;;;;;;5.60;2.80;;;;;;;26.70;75.44;99949.55;108278;1284;22023;-64
2023/07/08 05:04:05;;;;;;;4.40;3.10;;;;;;;26.71;75.02;99944.91;108276;1277;21999;-63
2023/07/08 05:06:31;;;;;;;3.70;2.60;;;;;;;26.72;75.17;99940.71;108264;1283;22005;-59
2023/07/08 05:08:58;;;;;;;5.80;3.10;;;;;;;26.72;75.13;99936.96;108271;1277;23703;-58
2023/07/08 05:11:23;;;;;;;6.20;2.90;;;;;;;26.71;75.16;99933.77;108287;1284;21992;-58
2023/07/08 05:13:49;;;;;;;4.20;3.00;;;;;;;26.70;75.95;99938.60;108216;1279;21993;-58
2023/07/08 05:16:15;;;;;;;6.30;3.30;;;;;;;26.67;76.02;99938.70;108221;1284;21990;-64
2023/07/08 05:18:40;;;;;;;4.50;3.30;;;;;;;26.66;75.72;99942.67;108283;1284;21990;-61
2023/07/08 05:21:07;;;;;;;6.60;3.20;;;;;;;26.68;75.27;99942.66;108217;1275;21993;-63
2023/07/08 05:23:33;;;;;;;4.10;3.20;;;;;;;26.76;75.24;99942.88;108241;1274;21981;-64
2023/07/08 05:26:00;;;;;;;4.10;3.10;;;;;;;26.90;74.57;99945.67;108248;1284;21996;-64
2023/07/08 05:28:27;;;;;;;3.90;3.10;;;;;;;26.97;74.41;99948.54;108268;1278;21998;-58
2023/07/08 05:30:56;;;;;;;5.00;3.30;;;;;;;27.02;74.20;99952.95;108272;1284;21994;-63
2023/07/08 05:33:24;;;;;;;4.00;2.80;;;;;;;27.03;74.02;99951.23;108257;1278;21992;-59
2023/07/08 05:35:50;;;;;;;3.40;2.90;;;;;;;26.98;74.66;99957.37;108250;1284;21989;-58
2023/07/08 05:38:15;;;;;;;7.70;3.40;;;;;;;26.98;74.93;99958.88;108234;1274;21985;-58
2023/07/08 05:40:44;;;;;;;4.40;3.10;;;;;;;26.98;74.60;99966.20;108228;1284;21949;-62
2023/07/08 05:43:09;;;;;;;4.30;3.30;;;;;;;27.00;74.57;99969.63;108243;1281;21989;-64
2023/07/08 05:45:35;;;;;;;3.70;3.10;;;;;;;27.01;74.41;99969.21;108213;1278;21997;-64
2023/07/08 05:48:02;;;;;;;5.80;3.90;;;;;;;27.00;74.97;99969.27;108244;1284;21991;-64
2023/07/08 05:50:28;;;;;;;4.40;3.60;;;;;;;27.00;74.36;99969.59;108290;1284;21986;-59
2023/07/08 05:52:53;;;;;;;5.40;3.30;;;;;;;27.02;74.42;99975.23;108221;1284;21960;-62
2023/07/08 05:55:19;;;;;;;4.50;3.70;;;;;;;27.04;74.48;99975.05;108212;1284;22002;-59
2023/07/08 05:57:45;;;;;;;5.90;3.50;;;;;;;27.05;74.39;99969.06;108223;1282;21992;-63
2023/07/08 06:00:11;;;;;;;4.80;3.50;;;;;;;27.08;74.48;99971.52;108193;1284;21988;-63
2023/07/08 06:02:36;;;;;;;5.90;4.00;;;;;;;27.10;74.31;99971.33;108273;1278;22001;-64
2023/07/08 06:05:02;;;;;;;6.00;4.00;;;;;;;27.10;74.54;99966.61;108200;1281;21987;-63
2023/07/08 06:07:28;;;;;;;4.60;3.80;;;;;;;27.10;74.36;99973.27;108245;1284;22002;-63
2023/07/08 06:09:55;;;;;;;6.90;4.00;;;;;;;27.09;74.71;99969.22;108240;1284;21981;-64
2023/07/08 06:12:22;;;;;;;5.40;4.10;;;;;;;27.06;75.07;99970.01;108219;1284;21986;-58
2023/07/08 06:14:47;;;;;;;5.60;4.30;;;;;;;27.06;75.19;99967.36;108281;1282;21992;-58
2023/07/08 06:17:13;;;;;;;4.80;4.00;;;;;;;27.05;75.96;99965.98;108236;1284;21984;-60
2023/07/08 06:19:39;;;;;;;6.00;3.60;;;;;;;27.08;75.26;99959.08;108233;1284;21986;-61
2023/07/08 06:22:05;;;;;;;10.60;4.90;;;;;;;27.26;75.20;99958.16;108234;1284;21989;-59
2023/07/08 06:24:31;;;;;;;7.40;4.30;;;;;;;27.47;75.78;99959.59;108239;1284;22023;-59
2023/07/08 06:26:57;;;;;;;7.00;4.30;;;;;;;27.57;74.34;99963.89;108226;1278;21989;-59
2023/07/08 06:29:24;;;;;;;6.40;4.30;;;;;;;27.60;74.24;99964.91;108257;1284;21983;-63
2023/07/08 06:31:50;;;;;;;5.90;4.70;;;;;;;27.63;74.09;99967.31;108272;1282;22026;-59
2023/07/08 06:34:16;;;;;;;7.20;4.30;;;;;;;27.66;73.88;99969.83;108292;1281;22470;-60
2023/07/08 06:36:42;;;;;;;4.70;4.20;;;;;;;27.67;73.48;99972.56;108258;1284;21961;-64
2023/07/08 06:39:08;;;;;;;5.40;4.10;;;;;;;27.69;73.67;99976.34;108255;1278;21973;-64
2023/07/08 06:41:35;;;;;;;5.30;4.30;;;;;;;27.71;73.55;99975.98;108249;1281;21983;-59
2023/07/08 06:44:01;;;;;;;5.70;3.80;;;;;;;27.78;73.22;99979.87;108241;1284;22002;-63
2023/07/08 06:46:27;;;;;;;10.00;5.10;;;;;;;27.86;72.85;99978.80;108214;1284;21990;-64
2023/07/08 06:48:53;;;;;;;6.90;4.70;;;;;;;27.87;72.63;99975.57;108236;1284;22004;-58
2023/07/08 06:51:19;;;;;;;5.10;4.60;;;;;;;27.91;72.62;99975.06;108212;1284;21986;-59
2023/07/08 06:53:45;;;;;;;5.80;4.30;;;;;;;27.96;72.93;99965.81;108240;1283;22022;-58
2023/07/08 06:56:11;;;;;;;7.50;4.60;;;;;;;28.00;72.96;99958.05;108274;1274;21993;-59
2023/07/08 06:58:37;;;;;;;5.80;4.60;;;;;;;28.05;72.79;99954.36;108394;1275;22017;-65
2023/07/08 07:01:03;;;;;;;5.80;4.60;;;;;;;28.08;72.69;99956.95;108304;1283;21981;-65
2023/07/08 07:03:29;;;;;;;6.40;4.70;;;;;;;28.12;72.78;99958.92;108266;1283;22052;-65
2023/07/08 07:05:54;;;;;;;5.20;4.40;;;;;;;28.14;72.56;99960.43;108302;1282;21985;-64
2023/07/08 07:08:20;;;;;;;5.40;4.80;;;;;;;28.12;72.33;99958.89;108262;1283;21985;-59
2023/07/08 07:10:46;;;;;;;83.80;11.10;;;;;;;28.16;72.53;99959.49;108261;1284;21994;-59
2023/07/08 07:13:12;;;;;;;8.20;4.80;;;;;;;28.16;72.93;99953.14;108230;1273;22024;-58
2023/07/08 07:15:38;;;;;;;7.60;4.60;;;;;;;28.12;73.10;99952.59;108175;1284;21989;-59
2023/07/08 07:18:03;;;;;;;7.60;4.90;;;;;;;28.07;73.32;99950.52;108192;1275;21983;-63
2023/07/08 07:20:31;;;;;;;7.60;5.30;;;;;;;27.97;73.75;99951.06;108290;1278;21993;-59
2023/07/08 07:22:56;;;;;;;7.50;5.80;;;;;;;27.87;74.26;99954.57;108268;1282;21984;-64
2023/07/08 07:25:22;;;;;;;7.30;5.30;;;;;;;27.77;74.37;99955.48;108223;1280;21985;-63
2023/07/08 07:27:48;;;;;;;6.20;5.20;;;;;;;27.69;74.84;99955.67;108262;1284;21988;-63
2023/07/08 07:30:14;;;;;;;6.70;4.80;;;;;;;27.63;74.94;99960.69;108232;1284;21982;-64
2023/07/08 07:32:41;;;;;;;8.20;6.60;;;;;;;27.60;75.36;99961.83;108244;1283;21987;-59
2023/07/08 07:35:12;;;;;;;10.60;9.50;;;;;;;27.60;75.79;99963.48;108220;1281;21993;-61
2023/07/08 07:37:39;;;;;;;9.80;8.20;;;;;;;27.59;75.78;99966.61;108183;1284;22028;-67
2023/07/08 07:40:12;;;;;;;7.60;5.80;;;;;;;27.57;76.37;99966.61;108286;1284;21985;-68
2023/07/08 07:42:41;;;;;;;6.50;5.80;;;;;;;27.55;76.57;99967.14;108236;1284;23077;-64
2023/07/08 07:45:08;;;;;;;8.20;5.50;;;;;;;27.54;76.39;99969.75;108203;1284;21970;-65
2023/07/08 07:47:34;;;;;;;7.70;6.10;;;;;;;27.53;76.54;99971.15;108297;1284;22077;-68
2023/07/08 07:50:00;;;;;;;8.40;6.20;;;;;;;27.55;76.70;99971.66;108245;1276;21991;-65
2023/07/08 07:52:26;;;;;;;5.90;5.30;;;;;;;27.59;76.50;99967.83;108241;1284;21994;-67
2023/07/08 07:54:53;;;;;;;7.40;5.50;;;;;;;27.65;76.95;99964.50;108198;1284;21983;-68
2023/07/08 07:57:19;;;;;;;6.30;5.40;;;;;;;27.69;77.60;99963.34;108256;1278;21983;-69
2023/07/08 07:59:46;;;;;;;7.60;5.70;;;;;;;27.73;77.85;99964.40;108222;1284;23036;-68
2023/07/08 08:02:11;;;;;;;7.10;6.00;;;;;;;27.77;77.78;99967.71;108224;1283;23039;-68
2023/07/08 08:04:37;;;;;;;8.20;6.40;;;;;;;27.82;77.79;99970.00;108327;1282;22027;-64
2023/07/08 08:07:03;;;;;;;7.70;6.60;;;;;;;27.85;78.14;99963.49;108229;1284;21996;-68
2023/07/08 08:09:29;;;;;;;7.40;6.70;;;;;;;27.91;78.31;99963.54;108291;1280;21989;-63
2023/07/08 08:11:55;;;;;;;8.80;7.90;;;;;;;27.99;79.07;99961.14;108245;1284;21986;-68
2023/07/08 08:14:21;;;;;;;6.80;6.10;;;;;;;28.07;79.27;99957.79;108220;1277;21999;-68
2023/07/08 08:16:46;;;;;;;7.60;6.00;;;;;;;28.12;79.51;99954.02;108228;1279;21989;-63
2023/07/08 08:19:12;;;;;;;6.90;6.00;;;;;;;28.19;80.40;99957.38;108264;1281;22198;-67
2023/07/08 08:21:37;;;;;;;9.30;7.40;;;;;;;28.25;80.13;99955.55;108273;1284;21988;-67
2023/07/08 08:24:03;;;;;;;9.40;7.80;;;;;;;28.33;80.47;99958.48;108238;1274;21984;-67
2023/07/08 08:26:29;;;;;;;8.80;7.20;;;;;;;28.37;80.35;99960.78;108313;1284;22471;-65
2023/07/08 08:28:55;;;;;;;8.20;7.30;;;;;;;28.40;79.05;99963.42;108312;1284;21989;-65
2023/07/08 08:31:20;;;;;;;7.20;6.10;;;;;;;28.43;79.95;99962.23;108251;1284;21984;-65
2023/07/08 08:33:46;;;;;;;6.80;6.10;;;;;;;28.44;79.06;99962.98;108265;1284;21989;-64
2023/07/08 08:36:12;;;;;;;7.50;5.50;;;;;;;28.45;78.09;99961.86;108238;1273;21985;-64
2023/07/08 08:38:38;;;;;;;6.20;5.60;;;;;;;28.46;78.85;99963.36;108250;1273;21983;-62
2023/07/08 08:41:14;;;;;;;6.60;5.80;;;;;;;28.47;78.02;99963.77;108217;1284;21986;-64
2023/07/08 08:43:40;;;;;;;7.20;5.80;;;;;;;28.52;78.28;99955.92;108242;1283;21991;-61
2023/07/08 08:46:27;;;;;;;6.10;5.50;;;;;;;28.55;78.39;99949.89;108233;1275;21999;-61
2023/07/08 08:49:25;;;;;;;6.90;5.30;;;;;;;28.59;78.73;99952.59;108303;1273;21989;-65
2023/07/08 08:51:51;;;;;;;7.60;6.00;;;;;;;28.62;78.56;99953.31;108173;1284;22784;-66
2023/07/08 08:54:17;;;;;;;6.90;6.20;;;;;;;28.66;78.34;99951.37;108209;1283;21974;-61
2023/07/08 08:57:11;;;;;;;7.20;6.00;;;;;;;28.67;79.11;99952.22;108235;1284;21985;-64
2023/07/08 08:59:44;;;;;;;6.20;4.90;;;;;;;28.64;78.25;99949.38;108250;1284;22442;-63
2023/07/08 09:02:22;;;;;;;5.80;5.20;;;;;;;28.63;77.54;99954.20;108245;1284;23134;-62
2023/07/08 09:04:47;;;;;;;5.70;4.80;;;;;;;28.60;77.66;99953.52;108256;1283;21993;-63
2023/07/08 09:07:16;;;;;;;6.90;5.10;;;;;;;28.60;77.63;99953.92;108133;1277;21988;-58
2023/07/08 09:10:11;;;;;;;5.50;4.70;;;;;;;28.62;77.11;99958.77;108254;1282;21995;-59
2023/07/08 09:12:37;;;;;;;5.70;5.10;;;;;;;28.67;77.32;99959.60;108178;1284;22006;-58
2023/07/08 09:15:13;;;;;;;5.90;4.40;;;;;;;28.70;77.45;99962.02;108295;1284;21987;-64
2023/07/08 09:17:38;;;;;;;7.40;5.00;;;;;;;28.76;77.11;99965.63;108303;1278;21994;-57
2023/07/08 09:20:07;;;;;;;5.70;4.60;;;;;;;28.84;76.99;99966.61;108233;1274;21988;-66
2023/07/08 09:22:44;;;;;;;8.90;4.40;;;;;;;28.95;76.68;99969.73;108245;1284;21991;-60
2023/07/08 09:25:25;;;;;;;7.30;4.90;;;;;;;29.07;76.79;99963.53;108247;1284;22000;-64
2023/07/08 09:27:51;;;;;;;5.10;4.10;;;;;;;29.22;76.33;99960.26;108211;1278;22159;-63
2023/07/08 09:30:23;;;;;;;6.80;3.90;;;;;;;29.41;76.40;99960.77;108219;1283;21992;-62
2023/07/08 09:32:49;;;;;;;5.20;4.00;;;;;;;29.66;76.43;99960.38;108268;1277;22022;-58
2023/07/08 09:35:23;;;;;;;4.10;3.70;;;;;;;29.95;76.26;99953.11;108258;1284;22003;-58
2023/07/08 09:37:49;;;;;;;5.10;3.70;;;;;;;30.27;75.13;99958.92;108256;1274;21999;-58
2023/07/08 09:40:33;;;;;;;5.20;3.60;;;;;;;30.55;73.91;99960.15;108277;1273;21998;-59
2023/07/08 09:43:22;;;;;;;5.00;3.70;;;;;;;30.79;72.29;99956.02;108303;1276;21988;-69
2023/07/08 09:45:48;;;;;;;7.30;3.60;;;;;;;30.93;70.21;99961.20;108232;1284;21999;-66
2023/07/08 09:48:16;;;;;;;5.50;4.30;;;;;;;31.01;69.70;99953.70;108223;1278;21983;-66
2023/07/08 09:50:43;;;;;;;4.90;3.50;;;;;;;31.08;68.99;99947.59;108253;1273;21991;-64
2023/07/08 09:53:11;;;;;;;4.50;3.50;;;;;;;31.18;68.51;99946.50;108207;1284;23596;-67
2023/07/08 09:55:37;;;;;;;4.90;3.90;;;;;;;31.26;67.04;99947.26;108158;1284;21993;-65
2023/07/08 09:58:04;;;;;;;4.50;3.50;;;;;;;31.30;66.05;99945.80;108165;1282;21958;-69
2023/07/08 10:00:34;;;;;;;6.20;4.30;;;;;;;31.33;65.26;99948.25;108268;1280;22000;-59
2023/07/08 10:03:03;;;;;;;5.30;3.80;;;;;;;31.40;65.36;99947.29;108249;1281;21991;-58
2023/07/08 10:05:34;;;;;;;4.80;3.50;;;;;;;31.53;65.26;99948.27;108266;1284;21993;-66
2023/07/08 10:08:00;;;;;;;5.70;3.60;;;;;;;31.65;64.97;99947.27;108115;1284;21991;-59
2023/07/08 10:10:37;;;;;;;4.50;3.40;;;;;;;31.77;63.83;99949.70;108160;1284;21985;-60
2023/07/08 10:13:17;;;;;;;6.20;4.10;;;;;;;31.98;63.86;99949.04;108237;1280;22168;-61
2023/07/08 10:15:46;;;;;;;4.80;3.80;;;;;;;32.22;62.65;99941.70;108200;1284;21991;-61
2023/07/08 10:18:14;;;;;;;6.50;4.30;;;;;;;32.44;60.63;99933.92;108289;1282;23984;-60
2023/07/08 10:20:50;;;;;;;5.30;3.50;;;;;;;32.60;60.30;99932.23;108173;1284;21995;-60
2023/07/08 10:23:23;;;;;;;5.00;3.80;;;;;;;32.69;57.61;99928.87;108303;1282;22042;-63
2023/07/08 10:26:09;;;;;;;8.20;4.40;;;;;;;32.86;57.57;99932.55;108265;1284;22008;-61
2023/07/08 10:28:44;;;;;;;8.70;5.40;;;;;;;33.10;57.88;99928.66;108205;1284;21986;-67
2023/07/08 10:31:25;;;;;;;6.70;6.00;;;;;;;33.13;55.38;99922.47;108216;1284;23068;-61
2023/07/08 10:34:04;;;;;;;6.50;5.70;;;;;;;33.21;55.28;99920.60;108203;1284;21993;-68
2023/07/08 10:36:46;;;;;;;7.60;5.20;;;;;;;33.26;54.02;99922.20;108346;1284;22055;-68
2023/07/08 10:39:28;;;;;;;5.90;4.70;;;;;;;33.10;52.59;99917.64;108147;1281;22447;-60
2023/07/08 10:41:57;;;;;;;5.90;5.30;;;;;;;33.07;54.54;99920.91;108223;1284;21983;-67
2023/07/08 10:44:26;;;;;;;5.50;5.00;;;;;;;33.07;54.42;99921.14;108290;1284;21987;-68
2023/07/08 10:47:04;;;;;;;8.20;5.60;;;;;;;32.98;53.75;99917.27;108108;1280;21967;-59
2023/07/08 10:49:51;;;;;;;7.50;4.90;;;;;;;32.85;54.01;99921.44;108199;1284;21997;-67
2023/07/08 10:52:39;;;;;;;8.90;5.50;;;;;;;32.81;54.80;99918.42;108259;1284;21986;-60
2023/07/08 10:55:14;;;;;;;6.60;5.90;;;;;;;32.68;53.35;99911.91;108243;1284;21992;-68
2023/07/08 10:58:13;;;;;;;7.30;6.30;;;;;;;32.45;52.64;99912.84;108227;1284;21996;-70
2023/07/08 11:00:46;;;;;;;6.70;6.00;;;;;;;32.36;54.15;99916.02;108175;1277;21984;-69
2023/07/08 11:03:20;;;;;;;6.80;5.50;;;;;;;32.25;53.48;99914.98;108286;1282;21986;-59
2023/07/08 11:05:57;;;;;;;7.10;5.80;;;;;;;32.20;53.28;99912.09;108306;1284;21989;-60
2023/07/08 11:08:23;;;;;;;8.40;6.90;;;;;;;32.24;54.80;99906.23;108408;1274;21978;-68
2023/07/08 11:11:06;;;;;;;8.60;6.60;;;;;;;32.37;54.78;99897.20;108450;1277;21994;-67
2023/07/08 11:13:34;;;;;;;9.30;7.10;;;;;;;32.49;53.70;99897.95;108329;1284;24390;-70
2023/07/08 11:16:02;;;;;;;8.50;7.70;;;;;;;32.54;53.27;99903.34;108378;1284;23716;-70
2023/07/08 11:18:28;;;;;;;8.00;7.20;;;;;;;32.68;54.20;99903.13;108346;1284;22017;-68
2023/07/08 11:21:05;;;;;;;8.60;7.70;;;;;;;32.69;54.00;99907.55;108265;1284;21992;-69
2023/07/08 11:23:44;;;;;;;12.50;8.10;;;;;;;32.66;54.00;99911.73;108255;1277;22101;-66
2023/07/08 11:26:15;;;;;;;9.60;8.20;;;;;;;32.58;52.85;99908.68;108215;1284;22006;-67
2023/07/08 11:28:42;;;;;;;9.20;8.30;;;;;;;32.47;52.76;99919.55;108216;1284;21989;-68
2023/07/08 11:31:07;;;;;;;8.90;8.00;;;;;;;32.50;53.82;99924.48;108254;1284;21997;-68